Time;durP1;ratioP1;P1;durP2;ratioP2;P2;SDS_P1;SDS_P2;PMS_P1;PMS_P2;Temp;Humidity;BMP_temperature;BMP_pressure;BME280_temperature;BME280_humidity;BME280_pressure;Samples;Min_cycle;Max_cycle;Signal;HPM_P1;HPM_P2
2023/04/20 00:00:10;;;;;;;7.38;4.50;;;;;;;5.60;68.30;99575.75;329277;29;18001;-75
2023/04/20 00:00:27;;;;;;;8.43;4.50;;;;;;;5.60;68.42;99580.91;333195;29;18508;-75
2023/04/20 00:00:40;;;;;;;7.88;4.50;;;;;;;5.56;68.36;99568.94;331460;29;17817;-75
2023/04/20 00:00:52;;;;;;;7.38;4.78;;;;;;;5.57;69.39;99577.53;334606;29;5303;-75
2023/04/20 00:01:04;;;;;;;8.35;4.90;;;;;;;5.54;68.75;99573.25;331831;28;18123;-74
2023/04/20 00:01:16;;;;;;;8.73;4.53;;;;;;;5.57;68.62;99574.94;335952;28;5084;-75
2023/04/20 00:01:31;;;;;;;8.65;4.18;;;;;;;5.58;68.22;99567.19;333069;28;17823;-75
2023/04/20 00:01:46;;;;;;;7.78;4.22;;;;;;;5.59;68.22;99573.19;329923;29;17312;-75
2023/04/20 00:02:04;;;;;;;6.13;4.18;;;;;;;5.63;67.98;99574.00;329143;29;18107;-75
2023/04/20 00:02:16;;;;;;;6.43;4.40;;;;;;;5.59;67.79;99568.91;331500;29;17685;-75
2023/04/20 00:02:28;;;;;;;7.43;4.60;;;;;;;5.58;67.48;99568.94;330775;29;17906;-75
2023/04/20 00:02:40;;;;;;;7.78;4.78;;;;;;;5.59;67.21;99568.91;334241;29;5085;-75
2023/04/20 00:02:53;;;;;;;10.10;4.70;;;;;;;5.59;67.32;99571.50;331984;29;19747;-75
2023/04/20 00:03:06;;;;;;;9.07;4.50;;;;;;;5.63;67.66;99574.00;333838;29;4603;-75
2023/04/20 00:03:20;;;;;;;8.88;4.50;;;;;;;5.64;67.43;99571.41;331614;29;18852;-75
2023/04/20 00:03:34;;;;;;;7.85;4.55;;;;;;;5.64;67.66;99571.41;335268;29;5274;-75
2023/04/20 00:03:46;;;;;;;8.98;4.72;;;;;;;5.66;67.63;99566.25;331262;29;18947;-75
2023/04/20 00:03:58;;;;;;;9.23;4.65;;;;;;;5.67;67.35;99570.50;331464;29;17817;-75
2023/04/20 00:04:10;;;;;;;8.85;4.60;;;;;;;5.67;67.24;99570.50;334059;29;5407;-75
2023/04/20 00:04:22;;;;;;;8.68;4.70;;;;;;;5.67;66.90;99565.34;333219;29;4582;-75
2023/04/20 00:04:35;;;;;;;8.25;4.75;;;;;;;5.64;67.61;99566.25;330711;29;18079;-75
2023/04/20 00:04:47;;;;;;;7.72;4.68;;;;;;;5.63;67.33;99569.69;333247;29;4662;-75
2023/04/20 00:04:59;;;;;;;7.40;4.50;;;;;;;5.60;68.08;99568.03;330618;29;18211;-75
2023/04/20 00:05:11;;;;;;;8.27;4.22;;;;;;;5.59;68.59;99562.88;332093;29;4499;-75
2023/04/20 00:05:23;;;;;;;8.07;4.18;;;;;;;5.57;67.95;99565.50;330153;29;17867;-75
2023/04/20 00:05:36;;;;;;;8.18;4.60;;;;;;;5.58;67.94;99567.19;332840;29;5300;-75
2023/04/20 00:05:48;;;;;;;7.38;4.70;;;;;;;5.56;67.78;99563.78;330367;29;16322;-75
2023/04/20 00:06:00;;;;;;;8.48;4.90;;;;;;;5.54;68.36;99569.84;334106;29;4500;-75
2023/04/20 00:06:12;;;;;;;8.80;5.00;;;;;;;5.56;67.38;99565.53;334214;29;4544;-75
2023/04/20 00:06:28;;;;;;;8.50;5.00;;;;;;;5.52;68.05;99567.28;332319;28;18326;-75
2023/04/20 00:06:42;;;;;;;7.90;4.85;;;;;;;5.54;68.26;99560.38;332548;28;16984;-75
2023/04/20 00:06:58;;;;;;;6.88;4.57;;;;;;;5.57;67.28;99564.63;331443;29;16296;-75
2023/04/20 00:07:10;;;;;;;7.25;4.38;;;;;;;5.58;67.36;99566.34;330667;29;18150;-74
2023/04/20 00:07:23;;;;;;;9.95;4.50;;;;;;;5.57;67.73;99564.63;333007;29;4840;-75
2023/04/20 00:07:35;;;;;;;10.77;4.60;;;;;;;5.51;67.72;99568.13;330396;29;18386;-75
2023/04/20 00:07:48;;;;;;;10.68;4.53;;;;;;;5.51;68.36;99559.56;333782;29;4576;-75
2023/04/20 00:08:00;;;;;;;8.90;4.57;;;;;;;5.49;68.21;99559.56;331934;29;18239;-75
2023/04/20 00:08:12;;;;;;;8.05;4.45;;;;;;;5.48;68.10;99560.47;334687;29;4674;-75
2023/04/20 00:08:24;;;;;;;7.32;4.40;;;;;;;5.48;67.65;99565.63;332135;28;18019;-75
2023/04/20 00:08:36;;;;;;;7.15;4.45;;;;;;;5.48;68.16;99565.63;335198;29;5281;-75
2023/04/20 00:08:48;;;;;;;8.23;4.60;;;;;;;5.48;67.78;99565.63;333192;29;4555;-75
2023/04/20 00:09:00;;;;;;;8.05;4.70;;;;;;;5.47;67.63;99568.19;333143;28;17558;-75
2023/04/20 00:09:14;;;;;;;7.75;4.53;;;;;;;5.46;67.53;99567.34;333105;29;4884;-75
2023/04/20 00:09:27;;;;;;;7.60;4.65;;;;;;;5.47;67.81;99569.06;330623;29;18247;-75
2023/04/20 00:09:39;;;;;;;7.15;4.80;;;;;;;5.45;68.26;99559.63;330084;29;18870;-75
2023/04/20 00:09:51;;;;;;;6.38;4.68;;;;;;;5.42;67.85;99564.84;334166;29;4573;-75
2023/04/20 00:10:03;;;;;;;6.95;4.53;;;;;;;5.42;67.23;99565.69;333504;29;4753;-75
2023/04/20 00:10:15;;;;;;;8.02;4.70;;;;;;;5.43;67.16;99562.22;333173;29;17530;-75
2023/04/20 00:10:27;;;;;;;9.13;4.97;;;;;;;5.44;67.34;99563.94;333135;29;4537;-75
2023/04/20 00:10:43;;;;;;;7.97;4.75;;;;;;;5.46;67.89;99559.63;329289;29;18086;-75
2023/04/20 00:10:54;;;;;;;7.25;4.70;;;;;;;5.48;67.57;99563.03;328469;29;17926;-75
2023/04/20 00:11:06;;;;;;;7.28;4.55;;;;;;;5.47;67.94;99557.91;331253;29;5203;-75
2023/04/20 00:11:18;;;;;;;8.57;4.60;;;;;;;5.44;68.53;99558.78;329459;29;19196;-75
2023/04/20 00:11:30;;;;;;;9.13;4.82;;;;;;;5.40;68.75;99560.56;331917;29;4520;-75
2023/04/20 00:11:42;;;;;;;8.65;4.82;;;;;;;5.39;68.46;99556.28;331673;29;5217;-75
2023/04/20 00:11:55;;;;;;;6.93;4.95;;;;;;;5.36;69.24;99558.03;329877;29;19280;-75
2023/04/20 00:12:07;;;;;;;7.95;5.03;;;;;;;5.39;68.37;99552.84;332563;29;5100;-75
2023/04/20 00:12:19;;;;;;;8.65;5.10;;;;;;;5.39;68.21;99558.88;329003;29;18649;-75
2023/04/20 00:12:31;;;;;;;9.70;5.10;;;;;;;5.38;67.90;99558.88;332032;29;5054;-75
2023/04/20 00:12:43;;;;;;;8.57;4.57;;;;;;;5.36;68.90;99555.47;332875;29;4643;-75
2023/04/20 00:12:55;;;;;;;8.52;4.53;;;;;;;5.36;68.65;99560.63;331897;29;17750;-75
2023/04/20 00:13:06;;;;;;;9.03;4.53;;;;;;;5.35;68.43;99562.34;334561;28;4690;-75
2023/04/20 00:13:19;;;;;;;7.35;4.75;;;;;;;5.36;68.41;99551.16;332172;29;19300;-75
2023/04/20 00:13:31;;;;;;;9.68;4.82;;;;;;;5.39;68.34;99556.28;333958;29;4517;-75
2023/04/20 00:13:42;;;;;;;10.02;4.80;;;;;;;5.37;67.94;99563.19;334006;29;4711;-75
2023/04/20 00:13:54;;;;;;;9.68;4.63;;;;;;;5.37;68.23;99559.72;331555;29;18631;-75
2023/04/20 00:14:06;;;;;;;8.32;4.82;;;;;;;5.36;67.78;99555.47;333688;29;5349;-75
2023/04/20 00:14:19;;;;;;;8.68;4.85;;;;;;;5.36;68.32;99551.16;331345;29;18478;-75
2023/04/20 00:14:31;;;;;;;7.78;4.95;;;;;;;5.38;68.29;99553.72;333155;29;4658;-75
2023/04/20 00:14:43;;;;;;;10.18;5.00;;;;;;;5.38;67.48;99554.56;330308;29;9013;-75
2023/04/20 00:14:55;;;;;;;9.02;4.75;;;;;;;5.39;67.74;99550.25;334623;29;5605;-75
2023/04/20 00:15:07;;;;;;;8.88;4.65;;;;;;;5.36;68.92;99555.47;334598;29;5201;-75
2023/04/20 00:15:19;;;;;;;8.80;4.72;;;;;;;5.35;69.04;99558.91;331365;29;18569;-75
2023/04/20 00:15:31;;;;;;;8.63;4.82;;;;;;;5.36;68.62;99550.31;333829;29;5226;-75
2023/04/20 00:15:52;;;;;;;6.63;4.82;;;;;;;5.36;68.19;99555.47;331595;29;18134;-75
2023/04/20 00:16:05;;;;;;;5.40;4.35;;;;;;;5.41;68.44;99553.66;331457;29;17732;-75
2023/04/20 00:16:17;;;;;;;7.30;4.13;;;;;;;5.42;68.33;99552.81;334553;29;4809;-75
2023/04/20 00:16:29;;;;;;;8.65;4.30;;;;;;;5.43;68.82;99549.34;331655;29;18023;-75
2023/04/20 00:16:41;;;;;;;9.65;4.38;;;;;;;5.44;67.89;99551.06;333924;29;5132;-75
2023/04/20 00:16:53;;;;;;;7.60;4.47;;;;;;;5.42;68.06;99552.81;331954;29;10075;-75
2023/04/20 00:17:05;;;;;;;8.23;4.75;;;;;;;5.42;68.22;99545.06;333756;29;4598;-75
2023/04/20 00:17:18;;;;;;;9.23;4.80;;;;;;;5.41;67.58;99545.94;334371;29;4523;-75
2023/04/20 00:17:30;;;;;;;8.68;4.60;;;;;;;5.42;67.31;99545.06;331867;29;18223;-75
2023/04/20 00:17:43;;;;;;;7.80;4.65;;;;;;;5.37;67.56;99552.88;334220;28;4510;-75
2023/04/20 00:17:55;;;;;;;7.53;4.90;;;;;;;5.38;67.78;99549.41;331333;28;17957;-75
2023/04/20 00:18:07;;;;;;;7.43;4.80;;;;;;;5.34;67.73;99546.91;335446;28;5222;-75
2023/04/20 00:18:19;;;;;;;7.20;4.72;;;;;;;5.34;68.39;99550.31;332488;29;5223;-75
2023/04/20 00:18:31;;;;;;;7.38;4.78;;;;;;;5.33;68.59;99546.06;335491;28;5270;-75
2023/04/20 00:18:45;;;;;;;6.75;4.60;;;;;;;5.32;68.03;99540.91;335943;28;4650;-75
2023/04/20 00:18:58;;;;;;;6.72;4.53;;;;;;;5.30;68.55;99551.25;330440;29;17738;-75
2023/04/20 00:19:10;;;;;;;6.90;4.60;;;;;;;5.32;68.96;99549.50;331707;29;17909;-75
2023/04/20 00:19:22;;;;;;;8.68;4.70;;;;;;;5.30;69.31;99545.25;334107;29;4560;-75
2023/04/20 00:19:35;;;;;;;8.80;4.65;;;;;;;5.29;69.03;99548.66;331468;29;18235;-75
2023/04/20 00:19:47;;;;;;;7.75;4.53;;;;;;;5.29;68.80;99548.66;333644;29;4830;-75
2023/04/20 00:19:59;;;;;;;7.33;4.50;;;;;;;5.29;68.71;99546.09;332027;29;9685;-75
2023/04/20 00:20:11;;;;;;;7.15;4.32;;;;;;;5.29;68.67;99548.66;333463;29;4565;-75
2023/04/20 00:20:24;;;;;;;6.50;4.30;;;;;;;5.29;69.04;99544.41;332262;29;5223;-75
2023/04/20 00:20:36;;;;;;;6.50;4.32;;;;;;;5.31;68.39;99542.66;334142;29;5523;-75
2023/04/20 00:20:48;;;;;;;6.88;4.35;;;;;;;5.32;68.36;99543.50;333117;29;5306;-75
2023/04/20 00:20:59;;;;;;;6.82;4.30;;;;;;;5.31;68.52;99552.09;331648;29;18448;-75
2023/04/20 00:21:12;;;;;;;6.60;4.32;;;;;;;5.33;69.12;99548.63;334861;29;4754;-75
2023/04/20 00:21:24;;;;;;;7.07;4.30;;;;;;;5.34;68.94;99541.75;331567;29;18776;-75
2023/04/20 00:21:36;;;;;;;7.43;4.15;;;;;;;5.35;68.99;99551.16;334943;29;4521;-75
2023/04/20 00:21:48;;;;;;;7.03;4.20;;;;;;;5.36;68.83;99546.00;330590;29;18056;-75
2023/04/20 00:22:00;;;;;;;6.38;4.18;;;;;;;5.37;68.23;99545.16;333873;29;4566;-75
2023/04/20 00:22:12;;;;;;;6.45;4.07;;;;;;;5.38;68.05;99543.41;334547;29;4559;-74
2023/04/20 00:22:25;;;;;;;7.55;4.32;;;;;;;5.37;68.05;99547.72;331500;29;18365;-75
2023/04/20 00:22:37;;;;;;;8.02;4.47;;;;;;;5.38;67.88;99543.41;334036;29;4685;-75
2023/04/20 00:22:49;;;;;;;7.43;4.53;;;;;;;5.38;67.94;99541.69;330515;29;18716;-74
2023/04/20 00:23:01;;;;;;;8.98;4.43;;;;;;;5.35;68.11;99538.28;334573;29;4653;-75
2023/04/20 00:23:14;;;;;;;10.38;4.38;;;;;;;5.30;68.30;99538.34;331712;29;11087;-75
2023/04/20 00:23:26;;;;;;;9.45;4.53;;;;;;;5.30;68.46;99540.09;334427;28;4502;-75
2023/04/20 00:23:38;;;;;;;7.50;4.50;;;;;;;5.29;68.83;99544.41;334468;29;5533;-75
2023/04/20 00:23:50;;;;;;;7.28;4.30;;;;;;;5.29;68.53;99546.09;330182;29;18051;-75
2023/04/20 00:24:02;;;;;;;7.22;4.53;;;;;;;5.30;68.52;99545.25;333004;29;4749;-75
2023/04/20 00:24:14;;;;;;;6.35;4.68;;;;;;;5.31;67.75;99541.78;330647;29;18198;-75
2023/04/20 00:24:26;;;;;;;6.60;4.65;;;;;;;5.31;67.94;99545.22;333263;29;5254;-75
2023/04/20 00:24:38;;;;;;;8.88;4.40;;;;;;;5.32;67.62;99543.50;330866;29;9676;-75
2023/04/20 00:24:50;;;;;;;8.60;4.07;;;;;;;5.32;67.93;99543.50;331948;29;5266;-75
2023/04/20 00:25:03;;;;;;;9.35;4.22;;;;;;;5.27;68.27;99540.97;331281;29;5421;-75
2023/04/20 00:25:15;;;;;;;7.95;4.32;;;;;;;5.25;68.70;99541.84;329412;29;18345;-75
2023/04/20 00:25:27;;;;;;;7.85;4.30;;;;;;;5.27;68.32;99543.56;331484;29;5342;-75
2023/04/20 00:25:39;;;;;;;5.15;4.00;;;;;;;5.29;68.77;99543.53;328562;29;16234;-75
2023/04/20 00:25:51;;;;;;;5.60;3.97;;;;;;;5.29;68.50;99539.25;333117;29;4484;-75
2023/04/20 00:26:05;;;;;;;5.65;4.07;;;;;;;5.31;68.13;99541.78;332201;29;5398;-75
2023/04/20 00:26:21;;;;;;;6.57;4.00;;;;;;;5.32;68.23;99546.06;331977;29;16789;-74
2023/04/20 00:26:33;;;;;;;6.60;4.03;;;;;;;5.26;67.70;99541.84;332706;29;5492;-75
2023/04/20 00:26:45;;;;;;;6.65;4.35;;;;;;;5.27;68.58;99545.25;331527;29;18119;-75
2023/04/20 00:26:57;;;;;;;6.50;4.40;;;;;;;5.25;68.22;99541.84;332857;29;5231;-75
2023/04/20 00:27:10;;;;;;;6.40;4.50;;;;;;;5.28;68.90;99541.81;331553;29;9413;-75
2023/04/20 00:27:22;;;;;;;7.38;4.53;;;;;;;5.27;68.35;99547.84;334737;29;4695;-75
2023/04/20 00:27:34;;;;;;;8.88;4.60;;;;;;;5.27;68.25;99540.09;331979;29;18535;-75
2023/04/20 00:27:46;;;;;;;9.18;4.35;;;;;;;5.28;68.68;99541.81;335550;28;5490;-75
2023/04/20 00:27:59;;;;;;;8.13;4.20;;;;;;;5.28;68.16;99544.41;333213;29;4511;-75
2023/04/20 00:28:11;;;;;;;8.70;4.00;;;;;;;5.30;68.40;99540.09;331336;29;17940;-75
2023/04/20 00:28:23;;;;;;;8.40;4.13;;;;;;;5.28;67.95;99541.81;334488;29;5034;-75
2023/04/20 00:28:34;;;;;;;6.82;4.40;;;;;;;5.27;68.09;99540.09;331693;29;18250;-75
2023/04/20 00:28:46;;;;;;;6.47;4.60;;;;;;;5.27;67.61;99537.53;333183;29;4685;-75
2023/04/20 00:28:58;;;;;;;6.07;4.32;;;;;;;5.27;68.29;99534.94;329411;29;4809;-75
2023/04/20 00:29:10;;;;;;;7.35;4.07;;;;;;;5.28;68.31;99537.53;333081;29;5341;-75
2023/04/20 00:29:22;;;;;;;8.07;3.92;;;;;;;5.26;68.76;99535.84;333069;29;5987;-75
2023/04/20 00:29:34;;;;;;;9.05;3.97;;;;;;;5.28;68.94;99536.69;330556;29;18137;-75
2023/04/20 00:29:46;;;;;;;6.85;3.88;;;;;;;5.28;68.07;99536.69;333061;29;5293;-75
2023/04/20 00:29:58;;;;;;;6.72;4.00;;;;;;;5.29;68.41;99538.38;330613;29;5263;-75
2023/04/20 00:30:11;;;;;;;7.40;4.00;;;;;;;5.29;67.97;99538.38;333608;29;17475;-75
2023/04/20 00:30:23;;;;;;;6.80;3.90;;;;;;;5.31;68.49;99536.63;333433;29;5690;-75
2023/04/20 00:30:35;;;;;;;6.53;3.80;;;;;;;5.31;68.81;99536.63;331646;29;18486;-75
2023/04/20 00:30:47;;;;;;;6.13;3.80;;;;;;;5.31;68.41;99536.63;333821;29;5157;-75
2023/04/20 00:30:59;;;;;;;7.20;3.90;;;;;;;5.30;68.10;99529.78;331947;29;18033;-75
2023/04/20 00:31:11;;;;;;;6.00;3.78;;;;;;;5.30;68.21;99534.94;333399;29;4587;-75
2023/04/20 00:31:26;;;;;;;5.93;3.90;;;;;;;5.27;69.25;99537.53;330600;29;17947;-75
2023/04/20 00:31:38;;;;;;;6.30;4.00;;;;;;;5.22;69.35;99537.59;329919;29;8876;-75
2023/04/20 00:31:50;;;;;;;6.57;3.92;;;;;;;5.24;69.10;99532.44;334502;29;5059;-75
2023/04/20 00:32:03;;;;;;;6.43;3.83;;;;;;;5.24;69.18;99535.00;333703;29;4892;-75
2023/04/20 00:32:15;;;;;;;6.75;3.80;;;;;;;5.24;69.32;99535.84;330231;29;18432;-75
2023/04/20 00:32:27;;;;;;;6.57;3.90;;;;;;;5.25;68.76;99532.41;333351;29;4482;-75
2023/04/20 00:32:39;;;;;;;6.63;4.00;;;;;;;5.25;68.97;99534.13;330386;29;18183;-75
2023/04/20 00:32:51;;;;;;;5.70;3.60;;;;;;;5.25;68.85;99526.38;333608;29;5406;-75
2023/04/20 00:33:03;;;;;;;5.82;3.70;;;;;;;5.26;69.05;99530.69;332138;29;9007;-75
2023/04/20 00:33:15;;;;;;;5.55;3.65;;;;;;;5.26;68.79;99533.25;333776;29;4596;-75
2023/04/20 00:33:28;;;;;;;5.82;3.80;;;;;;;5.26;68.76;99528.97;334702;29;4596;-75
2023/04/20 00:33:39;;;;;;;6.22;3.70;;;;;;;5.26;68.81;99528.09;331284;28;18177;-75
2023/04/20 00:33:51;;;;;;;7.15;3.90;;;;;;;5.22;69.67;99529.03;334240;28;5140;-75
2023/04/20 00:34:03;;;;;;;7.50;4.18;;;;;;;5.22;68.84;99529.03;330758;29;5093;-75
2023/04/20 00:34:15;;;;;;;5.95;4.20;;;;;;;5.19;68.83;99530.78;334541;29;4679;-75
2023/04/20 00:34:27;;;;;;;4.75;4.05;;;;;;;5.18;69.00;99529.03;334777;29;5179;-75
2023/04/20 00:34:40;;;;;;;6.93;4.00;;;;;;;5.18;68.95;99530.78;331006;29;17971;-75
2023/04/20 00:34:52;;;;;;;6.75;3.75;;;;;;;5.18;69.39;99528.19;334510;29;4504;-75
2023/04/20 00:35:04;;;;;;;6.40;3.78;;;;;;;5.18;69.08;99531.63;332404;29;8919;-75
2023/04/20 00:35:16;;;;;;;7.45;3.95;;;;;;;5.20;68.72;99529.03;333212;29;5263;-75
2023/04/20 00:35:28;;;;;;;9.02;4.15;;;;;;;5.19;68.28;99530.78;332524;29;5269;-75
2023/04/20 00:35:40;;;;;;;7.57;4.00;;;;;;;5.18;68.55;99523.88;328164;29;18291;-75
2023/04/20 00:35:52;;;;;;;6.07;4.00;;;;;;;5.18;68.65;99523.88;332125;29;5376;-75
2023/04/20 00:36:05;;;;;;;5.97;3.80;;;;;;;5.17;68.90;99527.34;329952;29;18355;-75
2023/04/20 00:36:20;;;;;;;6.40;3.78;;;;;;;5.16;69.43;99530.78;331944;29;4577;-75
2023/04/20 00:36:32;;;;;;;5.72;3.83;;;;;;;5.16;69.21;99528.22;327106;29;18197;-75
2023/04/20 00:36:44;;;;;;;6.10;3.90;;;;;;;5.15;69.27;99531.69;326630;29;18395;-75
2023/04/20 00:36:56;;;;;;;5.80;3.75;;;;;;;5.11;69.50;99530.00;331552;29;5264;-75
2023/04/20 00:37:08;;;;;;;6.70;3.70;;;;;;;5.13;69.46;99523.13;330913;29;5394;-75
2023/04/20 00:37:20;;;;;;;5.93;3.72;;;;;;;5.15;69.13;99525.66;330359;29;18186;-75
2023/04/20 00:37:32;;;;;;;6.85;3.90;;;;;;;5.16;69.01;99528.22;332969;29;5381;-75
2023/04/20 00:37:44;;;;;;;6.82;3.83;;;;;;;5.18;69.50;99526.47;331010;29;18144;-75
2023/04/20 00:37:56;;;;;;;6.57;3.75;;;;;;;5.12;69.14;99531.69;333250;29;5324;-75
2023/04/20 00:38:08;;;;;;;6.03;3.80;;;;;;;5.14;69.41;99529.97;333358;29;4515;-75
2023/04/20 00:38:20;;;;;;;5.50;3.80;;;;;;;5.09;68.59;99526.59;330826;29;18223;-75
2023/04/20 00:38:32;;;;;;;6.00;4.03;;;;;;;5.11;68.54;99524.84;333946;28;4646;-76
2023/04/20 00:38:44;;;;;;;5.80;3.97;;;;;;;5.10;68.97;99523.13;331686;28;9922;-75
2023/04/20 00:38:56;;;;;;;8.40;4.00;;;;;;;5.10;68.96;99527.44;333510;29;5279;-75
2023/04/20 00:39:09;;;;;;;8.48;3.80;;;;;;;5.10;69.06;99523.13;331156;29;6980;-75
2023/04/20 00:39:21;;;;;;;7.68;3.80;;;;;;;5.08;68.72;99524.03;333094;29;5284;-75
2023/04/20 00:39:33;;;;;;;6.95;3.60;;;;;;;5.07;68.96;99518.03;333068;29;4799;-75
2023/04/20 00:39:45;;;;;;;6.30;3.53;;;;;;;5.08;68.61;99519.72;330298;29;18257;-75
2023/04/20 00:39:57;;;;;;;6.30;3.55;;;;;;;5.08;68.71;99524.03;334257;29;5301;-75
2023/04/20 00:40:09;;;;;;;6.80;3.65;;;;;;;5.08;69.20;99519.72;331664;29;10851;-75
2023/04/20 00:40:21;;;;;;;8.02;3.67;;;;;;;5.11;69.11;99519.72;332526;28;5375;-75
2023/04/20 00:40:34;;;;;;;7.10;3.42;;;;;;;5.10;69.70;99523.13;334049;29;5316;-75
2023/04/20 00:40:51;;;;;;;7.10;3.60;;;;;;;5.09;69.56;99521.44;330671;29;17996;-75
2023/04/20 00:41:03;;;;;;;8.35;3.80;;;;;;;5.11;70.23;99519.72;332297;29;17801;-75
2023/04/20 00:41:15;;;;;;;8.15;3.85;;;;;;;5.11;69.49;99522.28;332458;29;18339;-75
2023/04/20 00:41:27;;;;;;;7.85;3.75;;;;;;;5.12;69.56;99518.81;334393;29;5305;-75
2023/04/20 00:41:39;;;;;;;11.50;3.75;;;;;;;5.12;69.41;99521.41;331673;29;18357;-75
2023/04/20 00:41:51;;;;;;;10.75;3.75;;;;;;;5.14;69.21;99513.66;334124;28;4552;-75
2023/04/20 00:42:05;;;;;;;6.65;3.70;;;;;;;5.13;68.92;99517.09;334285;28;5351;-75
2023/04/20 00:42:17;;;;;;;5.90;3.65;;;;;;;5.12;68.96;99521.41;331543;29;18292;-75
2023/04/20 00:42:29;;;;;;;7.50;3.55;;;;;;;5.10;68.59;99523.13;331788;29;18001;-75
2023/04/20 00:42:41;;;;;;;7.50;3.70;;;;;;;5.10;69.05;99515.41;333919;29;4660;-75
2023/04/20 00:42:53;;;;;;;6.50;3.83;;;;;;;5.09;69.24;99518.88;333990;29;4563;-75
2023/04/20 00:43:12;;;;;;;5.07;3.53;;;;;;;5.13;69.26;99522.25;331159;29;18097;-75
2023/04/20 00:43:24;;;;;;;4.93;3.63;;;;;;;5.12;68.99;99521.41;330131;29;17756;-75
2023/04/20 00:43:36;;;;;;;5.70;3.80;;;;;;;5.10;69.59;99512.84;333313;29;4466;-75
2023/04/20 00:43:52;;;;;;;5.65;3.60;;;;;;;5.08;69.66;99519.72;332015;29;5390;-75
2023/04/20 00:44:07;;;;;;;5.03;3.35;;;;;;;5.08;69.06;99517.16;330952;29;17079;-75
2023/04/20 00:44:18;;;;;;;5.43;3.40;;;;;;;5.09;69.11;99511.16;331639;29;5337;-75
2023/04/20 00:44:31;;;;;;;5.57;3.25;;;;;;;5.12;69.45;99521.41;331803;29;18383;-75
2023/04/20 00:44:43;;;;;;;4.60;3.28;;;;;;;5.13;69.07;99510.22;333526;29;4608;-75
2023/04/20 00:44:54;;;;;;;5.10;3.53;;;;;;;5.14;68.99;99511.91;330824;29;9705;-75
2023/04/20 00:45:07;;;;;;;6.35;3.92;;;;;;;5.11;69.15;99511.09;333138;29;5132;-75
2023/04/20 00:45:21;;;;;;;6.20;3.85;;;;;;;5.10;68.88;99512.00;327446;29;18361;-75
2023/04/20 00:45:33;;;;;;;5.85;3.60;;;;;;;5.08;68.96;99517.16;331831;29;4957;-75
2023/04/20 00:45:45;;;;;;;5.63;3.50;;;;;;;5.10;68.96;99515.41;328899;29;19369;-75
2023/04/20 00:45:57;;;;;;;4.75;3.53;;;;;;;5.08;68.88;99509.44;333050;29;4676;-75
2023/04/20 00:46:10;;;;;;;4.57;3.60;;;;;;;5.08;68.06;99508.59;330474;29;18400;-75
2023/04/20 00:46:22;;;;;;;4.78;3.63;;;;;;;5.08;68.18;99513.72;334098;29;5238;-75
2023/04/20 00:46:35;;;;;;;4.40;3.30;;;;;;;5.07;68.26;99510.31;330192;29;19108;-75
2023/04/20 00:46:50;;;;;;;4.30;3.22;;;;;;;4.99;68.37;99514.72;334197;29;5092;-75
2023/04/20 00:47:02;;;;;;;5.65;3.30;;;;;;;5.00;68.27;99511.25;330949;29;18722;-75
2023/04/20 00:47:14;;;;;;;7.28;3.40;;;;;;;4.93;68.47;99512.19;331763;29;16214;-75
2023/04/20 00:47:26;;;;;;;7.20;3.60;;;;;;;4.83;68.59;99514.03;333725;29;5574;-75
2023/04/20 00:47:38;;;;;;;5.82;3.60;;;;;;;4.84;68.84;99504.56;335122;29;4638;-75
2023/04/20 00:47:50;;;;;;;4.72;3.35;;;;;;;4.86;68.56;99508.00;331444;28;17904;-75
2023/04/20 00:48:03;;;;;;;5.38;3.67;;;;;;;4.90;68.96;99509.66;336065;29;4678;-75
2023/04/20 00:48:15;;;;;;;5.38;3.60;;;;;;;4.92;69.26;99513.06;331713;29;16909;-75
2023/04/20 00:48:27;;;;;;;5.40;3.50;;;;;;;4.93;68.74;99507.03;333228;29;4815;-75
2023/04/20 00:48:39;;;;;;;5.90;3.42;;;;;;;4.92;68.88;99507.91;332273;29;16227;-75
2023/04/20 00:48:53;;;;;;;5.90;3.50;;;;;;;4.92;68.65;99507.91;334158;29;5883;-75
2023/04/20 00:49:06;;;;;;;5.00;3.47;;;;;;;4.95;68.71;99513.00;330742;29;18259;-75
2023/04/20 00:49:18;;;;;;;4.70;3.33;;;;;;;4.97;68.87;99517.28;332260;29;4877;-75
2023/04/20 00:49:30;;;;;;;5.43;3.40;;;;;;;4.96;68.65;99509.59;330046;29;18238;-75
2023/04/20 00:49:42;;;;;;;5.18;3.25;;;;;;;4.98;68.73;99510.41;331421;29;4748;-75
2023/04/20 00:49:54;;;;;;;4.55;3.30;;;;;;;4.99;69.20;99510.41;328432;29;18703;-75
2023/04/20 00:50:07;;;;;;;5.13;3.35;;;;;;;4.87;68.91;99510.56;333281;29;5153;-75
2023/04/20 00:50:19;;;;;;;4.70;3.38;;;;;;;4.90;68.53;99514.81;330445;29;8630;-75
2023/04/20 00:50:32;;;;;;;4.57;3.50;;;;;;;4.94;69.26;99516.47;332999;29;5058;-75
2023/04/20 00:50:44;;;;;;;4.57;3.50;;;;;;;4.98;68.78;99502.69;330254;29;18134;-75
2023/04/20 00:50:56;;;;;;;6.63;3.45;;;;;;;4.99;68.72;99504.41;333196;29;5026;-75
2023/04/20 00:51:09;;;;;;;7.88;3.63;;;;;;;5.01;69.47;99502.66;332935;29;4576;-75
2023/04/20 00:51:21;;;;;;;6.82;3.60;;;;;;;5.01;69.58;99505.25;329047;29;18215;-75
2023/04/20 00:51:34;;;;;;;5.50;3.55;;;;;;;5.01;69.36;99507.81;332252;29;5328;-75
2023/04/20 00:51:46;;;;;;;4.75;3.55;;;;;;;5.03;68.91;99498.34;329372;28;17847;-75
2023/04/20 00:51:59;;;;;;;5.07;3.65;;;;;;;5.02;69.50;99503.50;334273;29;4683;-75
2023/04/20 00:52:11;;;;;;;4.93;3.63;;;;;;;5.04;69.16;99506.91;331320;29;18264;-75
2023/04/20 00:52:23;;;;;;;4.88;3.20;;;;;;;5.01;69.12;99507.81;334196;29;4566;-75
2023/04/20 00:52:35;;;;;;;5.00;3.20;;;;;;;5.04;69.54;99502.59;329424;29;19450;-75
2023/04/20 00:52:47;;;;;;;5.10;3.28;;;;;;;5.06;69.63;99500.88;332441;29;4670;-75
2023/04/20 00:53:01;;;;;;;5.10;3.45;;;;;;;5.08;68.80;99499.13;329107;29;16322;-75
2023/04/20 00:53:13;;;;;;;5.32;3.50;;;;;;;5.08;68.33;99501.69;333808;29;4862;-75
2023/04/20 00:53:25;;;;;;;4.65;3.38;;;;;;;5.09;68.50;99498.25;331836;29;5626;-75
2023/04/20 00:53:37;;;;;;;4.63;3.33;;;;;;;5.08;68.89;99504.28;335108;29;4487;-75
2023/04/20 00:53:49;;;;;;;4.82;3.47;;;;;;;5.07;69.01;99501.72;329702;29;16136;-75
2023/04/20 00:54:01;;;;;;;5.72;3.72;;;;;;;5.06;69.34;99503.44;331729;29;5206;-75
2023/04/20 00:54:14;;;;;;;6.78;3.90;;;;;;;5.01;69.05;99500.09;332026;29;5088;-74
2023/04/20 00:54:28;;;;;;;7.88;3.92;;;;;;;4.88;68.22;99501.09;329990;29;18909;-75
2023/04/20 00:54:41;;;;;;;6.43;3.55;;;;;;;4.81;68.39;99497.75;331146;29;19046;-75
2023/04/20 00:54:54;;;;;;;5.03;3.40;;;;;;;4.83;68.38;99503.72;333522;29;4565;-75
2023/04/20 00:55:06;;;;;;;4.13;3.33;;;;;;;4.82;67.82;99498.59;329985;29;18348;-74
2023/04/20 00:55:19;;;;;;;4.53;3.45;;;;;;;4.78;68.08;99495.19;332948;29;4599;-75
2023/04/20 00:55:32;;;;;;;4.40;3.50;;;;;;;4.73;68.08;99497.84;328805;29;18121;-75
2023/04/20 00:55:44;;;;;;;4.07;3.35;;;;;;;4.69;68.85;99496.16;332000;29;4527;-75
2023/04/20 00:55:56;;;;;;;3.95;3.30;;;;;;;4.69;69.23;99501.31;330972;29;17085;-75
2023/04/20 00:56:08;;;;;;;4.13;3.30;;;;;;;4.69;69.46;99495.28;333280;29;4531;-75
2023/04/20 00:56:20;;;;;;;4.43;3.30;;;;;;;4.69;69.69;99493.59;328853;29;17859;-76
2023/04/20 00:56:37;;;;;;;5.25;3.50;;;;;;;4.69;69.43;99501.31;332764;29;5445;-75
2023/04/20 00:56:50;;;;;;;5.78;3.83;;;;;;;4.64;69.19;99492.78;332743;29;17479;-75
2023/04/20 00:57:03;;;;;;;5.13;3.78;;;;;;;4.61;68.89;99495.41;330006;29;19438;-75
2023/04/20 00:57:21;;;;;;;4.82;3.67;;;;;;;4.58;68.28;99493.69;330513;29;5326;-75
2023/04/20 00:57:34;;;;;;;5.97;3.50;;;;;;;4.57;69.01;99491.16;328990;29;17815;-75
2023/04/20 00:57:46;;;;;;;5.85;3.38;;;;;;;4.50;68.73;99489.50;329405;29;19229;-74
2023/04/20 00:57:58;;;;;;;4.53;3.28;;;;;;;4.52;68.50;99498.06;330861;29;4603;-75
2023/04/20 00:58:11;;;;;;;4.78;3.30;;;;;;;4.53;68.40;99495.47;327691;29;18180;-75
2023/04/20 00:58:23;;;;;;;5.13;3.42;;;;;;;4.52;68.64;99498.06;330162;29;4611;-75
2023/04/20 00:58:35;;;;;;;5.15;3.60;;;;;;;4.46;68.73;99492.97;328923;29;5665;-75
2023/04/20 00:58:47;;;;;;;5.47;3.78;;;;;;;4.38;68.57;99490.47;331846;29;5176;-74
2023/04/20 00:59:00;;;;;;;5.25;3.67;;;;;;;4.35;68.52;99493.09;329612;29;5445;-75
2023/04/20 00:59:12;;;;;;;5.78;3.60;;;;;;;4.29;68.41;99488.00;331713;29;5648;-75
2023/04/20 00:59:24;;;;;;;6.75;3.70;;;;;;;4.20;68.17;99491.50;328556;29;18387;-75
2023/04/20 00:59:36;;;;;;;6.53;3.78;;;;;;;4.12;68.37;99486.41;332519;29;5354;-75
2023/04/20 00:59:50;;;;;;;6.32;3.70;;;;;;;4.11;68.19;99489.88;333876;29;5747;-75
2023/04/20 01:00:05;;;;;;;6.18;3.67;;;;;;;4.12;68.57;99483.00;331521;29;18046;-74
2023/04/20 01:00:17;;;;;;;5.82;3.50;;;;;;;4.07;68.52;99484.78;332307;29;18102;-75
2023/04/20 01:00:29;;;;;;;5.03;3.65;;;;;;;4.07;68.76;99489.91;331719;29;5444;-75
2023/04/20 01:00:41;;;;;;;5.38;3.40;;;;;;;4.01;68.40;99490.81;333850;29;5088;-75
2023/04/20 01:00:53;;;;;;;5.50;3.35;;;;;;;4.00;68.38;99494.25;333965;29;4640;-75